sensor_id;sensor_type;location;lat;lon;timestamp;P1;durP1;ratioP1;P2;durP2;ratioP2
18693;SDS011;9477;51.414;10.362;2022-11-20T00:00:50;17.87;;;10.07;;
18693;SDS011;9477;51.414;10.362;2022-11-20T00:02:53;12.73;;;8.13;;
18693;SDS011;9477;51.414;10.362;2022-11-20T00:04:57;12.30;;;7.60;;
18693;SDS011;9477;51.414;10.362;2022-11-20T00:07:00;13.00;;;8.00;;
18693;SDS011;9477;51.414;10.362;2022-11-20T00:09:03;13.13;;;8.17;;
18693;SDS011;9477;51.414;10.362;2022-11-20T00:11:07;14.60;;;8.20;;
18693;SDS011;9477;51.414;10.362;2022-11-20T00:13:16;16.80;;;8.43;;
18693;SDS011;9477;51.414;10.362;2022-11-20T00:15:19;15.20;;;8.37;;
18693;SDS011;9477;51.414;10.362;2022-11-20T00:17:22;13.53;;;8.23;;
18693;SDS011;9477;51.414;10.362;2022-11-20T00:19:25;12.07;;;7.50;;
18693;SDS011;9477;51.414;10.362;2022-11-20T00:21:29;13.43;;;7.70;;
18693;SDS011;9477;51.414;10.362;2022-11-20T00:23:32;13.20;;;7.93;;
18693;SDS011;9477;51.414;10.362;2022-11-20T00:25:36;12.17;;;7.60;;
18693;SDS011;9477;51.414;10.362;2022-11-20T00:27:38;11.83;;;7.97;;
18693;SDS011;9477;51.414;10.362;2022-11-20T00:29:41;11.60;;;7.00;;
18693;SDS011;9477;51.414;10.362;2022-11-20T00:31:44;12.50;;;6.97;;
18693;SDS011;9477;51.414;10.362;2022-11-20T00:33:47;12.17;;;7.77;;
18693;SDS011;9477;51.414;10.362;2022-11-20T00:35:50;11.27;;;7.00;;
18693;SDS011;9477;51.414;10.362;2022-11-20T00:37:54;11.43;;;6.97;;
18693;SDS011;9477;51.414;10.362;2022-11-20T00:39:57;11.63;;;6.70;;
18693;SDS011;9477;51.414;10.362;2022-11-20T00:42:00;11.10;;;6.43;;
18693;SDS011;9477;51.414;10.362;2022-11-20T00:44:03;11.07;;;7.00;;
18693;SDS011;9477;51.414;10.362;2022-11-20T00:46:06;12.50;;;7.63;;
18693;SDS011;9477;51.414;10.362;2022-11-20T00:48:10;11.67;;;7.83;;
18693;SDS011;9477;51.414;10.362;2022-11-20T00:50:13;12.07;;;7.90;;
18693;SDS011;9477;51.414;10.362;2022-11-20T00:52:16;12.60;;;8.03;;
18693;SDS011;9477;51.414;10.362;2022-11-20T00:54:20;13.50;;;8.10;;
18693;SDS011;9477;51.414;10.362;2022-11-20T00:56:23;13.13;;;7.63;;
18693;SDS011;9477;51.414;10.362;2022-11-20T00:58:28;12.67;;;7.57;;
18693;SDS011;9477;51.414;10.362;2022-11-20T01:00:32;11.07;;;7.47;;
18693;SDS011;9477;51.414;10.362;2022-11-20T01:02:35;11.70;;;7.90;;
18693;SDS011;9477;51.414;10.362;2022-11-20T01:04:38;13.17;;;7.80;;
18693;SDS011;9477;51.414;10.362;2022-11-20T01:06:40;12.30;;;7.70;;
18693;SDS011;9477;51.414;10.362;2022-11-20T01:08:44;14.83;;;8.60;;
18693;SDS011;9477;51.414;10.362;2022-11-20T01:10:49;13.73;;;8.57;;
18693;SDS011;9477;51.414;10.362;2022-11-20T01:12:51;15.03;;;8.20;;
18693;SDS011;9477;51.414;10.362;2022-11-20T01:15:15;13.53;;;8.63;;
18693;SDS011;9477;51.414;10.362;2022-11-20T01:17:18;12.87;;;8.20;;
18693;SDS011;9477;51.414;10.362;2022-11-20T01:19:21;15.30;;;7.33;;
18693;SDS011;9477;51.414;10.362;2022-11-20T01:21:26;11.13;;;6.77;;
18693;SDS011;9477;51.414;10.362;2022-11-20T01:23:31;9.03;;;6.07;;
18693;SDS011;9477;51.414;10.362;2022-11-20T01:25:35;12.20;;;7.67;;
18693;SDS011;9477;51.414;10.362;2022-11-20T01:27:39;12.07;;;7.40;;
18693;SDS011;9477;51.414;10.362;2022-11-20T01:29:42;12.70;;;7.20;;
18693;SDS011;9477;51.414;10.362;2022-11-20T01:31:45;12.87;;;7.93;;
18693;SDS011;9477;51.414;10.362;2022-11-20T01:33:49;12.93;;;7.53;;
18693;SDS011;9477;51.414;10.362;2022-11-20T01:35:53;13.23;;;7.77;;
18693;SDS011;9477;51.414;10.362;2022-11-20T01:38:05;13.07;;;7.73;;
18693;SDS011;9477;51.414;10.362;2022-11-20T01:40:08;13.07;;;7.57;;
18693;SDS011;9477;51.414;10.362;2022-11-20T01:42:12;14.03;;;8.63;;
18693;SDS011;9477;51.414;10.362;2022-11-20T01:47:04;12.80;;;7.40;;
18693;SDS011;9477;51.414;10.362;2022-11-20T01:49:10;11.83;;;6.97;;
18693;SDS011;9477;51.414;10.362;2022-11-20T01:51:20;11.30;;;6.63;;
18693;SDS011;9477;51.414;10.362;2022-11-20T01:53:28;10.77;;;5.97;;
18693;SDS011;9477;51.414;10.362;2022-11-20T01:55:35;9.70;;;6.23;;
18693;SDS011;9477;51.414;10.362;2022-11-20T01:57:41;11.70;;;6.73;;
18693;SDS011;9477;51.414;10.362;2022-11-20T01:59:49;10.27;;;6.40;;
18693;SDS011;9477;51.414;10.362;2022-11-20T02:01:57;10.40;;;6.73;;
18693;SDS011;9477;51.414;10.362;2022-11-20T02:04:00;10.27;;;6.20;;
18693;SDS011;9477;51.414;10.362;2022-11-20T02:06:06;9.83;;;6.27;;
18693;SDS011;9477;51.414;10.362;2022-11-20T02:08:14;12.13;;;6.43;;
18693;SDS011;9477;51.414;10.362;2022-11-20T02:10:19;11.23;;;6.53;;
18693;SDS011;9477;51.414;10.362;2022-11-20T02:12:22;10.90;;;6.53;;
18693;SDS011;9477;51.414;10.362;2022-11-20T02:14:42;10.73;;;6.77;;
18693;SDS011;9477;51.414;10.362;2022-11-20T02:16:46;10.77;;;6.60;;
18693;SDS011;9477;51.414;10.362;2022-11-20T02:18:52;13.73;;;8.00;;
18693;SDS011;9477;51.414;10.362;2022-11-20T02:20:58;13.03;;;7.97;;
18693;SDS011;9477;51.414;10.362;2022-11-20T02:23:07;14.03;;;8.60;;
18693;SDS011;9477;51.414;10.362;2022-11-20T02:25:15;11.43;;;7.50;;
18693;SDS011;9477;51.414;10.362;2022-11-20T02:27:19;12.50;;;7.77;;
18693;SDS011;9477;51.414;10.362;2022-11-20T02:29:24;12.80;;;8.00;;
18693;SDS011;9477;51.414;10.362;2022-11-20T02:31:30;13.90;;;8.43;;
18693;SDS011;9477;51.414;10.362;2022-11-20T02:33:38;13.20;;;8.00;;
18693;SDS011;9477;51.414;10.362;2022-11-20T02:35:44;13.30;;;7.87;;
18693;SDS011;9477;51.414;10.362;2022-11-20T02:37:48;14.93;;;8.40;;
18693;SDS011;9477;51.414;10.362;2022-11-20T02:39:55;14.40;;;8.67;;
18693;SDS011;9477;51.414;10.362;2022-11-20T02:42:00;12.13;;;7.77;;
18693;SDS011;9477;51.414;10.362;2022-11-20T02:44:04;14.67;;;8.33;;
18693;SDS011;9477;51.414;10.362;2022-11-20T02:46:07;13.00;;;7.97;;
18693;SDS011;9477;51.414;10.362;2022-11-20T02:48:11;12.97;;;7.83;;
18693;SDS011;9477;51.414;10.362;2022-11-20T02:50:13;13.07;;;8.10;;
18693;SDS011;9477;51.414;10.362;2022-11-20T02:52:17;17.10;;;8.10;;
18693;SDS011;9477;51.414;10.362;2022-11-20T02:54:20;14.70;;;7.83;;
18693;SDS011;9477;51.414;10.362;2022-11-20T02:56:22;12.73;;;7.97;;
18693;SDS011;9477;51.414;10.362;2022-11-20T02:58:27;14.93;;;8.20;;
18693;SDS011;9477;51.414;10.362;2022-11-20T03:00:30;11.23;;;7.10;;
18693;SDS011;9477;51.414;10.362;2022-11-20T03:02:33;15.63;;;8.17;;
18693;SDS011;9477;51.414;10.362;2022-11-20T03:04:36;13.53;;;8.10;;
18693;SDS011;9477;51.414;10.362;2022-11-20T03:06:39;12.73;;;7.40;;
18693;SDS011;9477;51.414;10.362;2022-11-20T03:08:42;12.73;;;7.93;;
18693;SDS011;9477;51.414;10.362;2022-11-20T03:10:45;13.20;;;8.23;;
18693;SDS011;9477;51.414;10.362;2022-11-20T03:12:52;13.77;;;8.20;;
18693;SDS011;9477;51.414;10.362;2022-11-20T03:14:56;12.07;;;7.33;;
18693;SDS011;9477;51.414;10.362;2022-11-20T03:16:59;11.53;;;7.37;;
18693;SDS011;9477;51.414;10.362;2022-11-20T03:19:02;17.23;;;8.33;;
18693;SDS011;9477;51.414;10.362;2022-11-20T03:21:05;15.90;;;8.47;;
18693;SDS011;9477;51.414;10.362;2022-11-20T03:23:08;11.87;;;7.83;;
18693;SDS011;9477;51.414;10.362;2022-11-20T03:25:11;12.23;;;7.33;;
18693;SDS011;9477;51.414;10.362;2022-11-20T03:27:13;14.10;;;7.97;;
18693;SDS011;9477;51.414;10.362;2022-11-20T03:29:16;14.63;;;8.70;;
18693;SDS011;9477;51.414;10.362;2022-11-20T03:31:22;13.57;;;8.27;;
18693;SDS011;9477;51.414;10.362;2022-11-20T03:33:27;13.90;;;7.73;;
18693;SDS011;9477;51.414;10.362;2022-11-20T03:35:30;12.37;;;7.40;;
18693;SDS011;9477;51.414;10.362;2022-11-20T03:37:33;12.90;;;7.23;;
18693;SDS011;9477;51.414;10.362;2022-11-20T03:39:36;13.67;;;8.00;;
18693;SDS011;9477;51.414;10.362;2022-11-20T03:41:39;15.60;;;8.60;;
18693;SDS011;9477;51.414;10.362;2022-11-20T03:43:46;14.97;;;8.60;;
18693;SDS011;9477;51.414;10.362;2022-11-20T03:45:49;13.27;;;8.10;;
18693;SDS011;9477;51.414;10.362;2022-11-20T03:47:53;13.23;;;8.03;;
18693;SDS011;9477;51.414;10.362;2022-11-20T03:49:56;14.93;;;8.67;;
18693;SDS011;9477;51.414;10.362;2022-11-20T03:51:59;15.00;;;8.07;;
18693;SDS011;9477;51.414;10.362;2022-11-20T03:54:03;14.23;;;8.33;;
18693;SDS011;9477;51.414;10.362;2022-11-20T03:56:07;13.80;;;8.17;;
18693;SDS011;9477;51.414;10.362;2022-11-20T03:58:11;10.27;;;6.47;;
18693;SDS011;9477;51.414;10.362;2022-11-20T04:00:14;12.80;;;6.80;;
18693;SDS011;9477;51.414;10.362;2022-11-20T04:02:18;11.73;;;6.30;;
18693;SDS011;9477;51.414;10.362;2022-11-20T04:04:22;12.97;;;7.00;;
18693;SDS011;9477;51.414;10.362;2022-11-20T04:06:26;14.47;;;7.37;;
18693;SDS011;9477;51.414;10.362;2022-11-20T04:08:30;12.27;;;6.73;;
18693;SDS011;9477;51.414;10.362;2022-11-20T04:10:33;12.60;;;7.33;;
18693;SDS011;9477;51.414;10.362;2022-11-20T04:12:36;16.37;;;7.90;;
18693;SDS011;9477;51.414;10.362;2022-11-20T04:14:39;14.30;;;8.33;;
18693;SDS011;9477;51.414;10.362;2022-11-20T04:16:42;12.13;;;7.43;;
18693;SDS011;9477;51.414;10.362;2022-11-20T04:18:45;14.47;;;8.23;;
18693;SDS011;9477;51.414;10.362;2022-11-20T04:20:49;12.40;;;6.90;;
18693;SDS011;9477;51.414;10.362;2022-11-20T04:22:53;11.60;;;7.40;;
18693;SDS011;9477;51.414;10.362;2022-11-20T04:24:56;11.70;;;7.53;;
18693;SDS011;9477;51.414;10.362;2022-11-20T04:26:59;12.53;;;7.33;;
18693;SDS011;9477;51.414;10.362;2022-11-20T04:29:02;10.93;;;6.93;;
18693;SDS011;9477;51.414;10.362;2022-11-20T04:31:06;9.60;;;6.43;;
18693;SDS011;9477;51.414;10.362;2022-11-20T04:33:10;12.70;;;7.60;;
18693;SDS011;9477;51.414;10.362;2022-11-20T04:35:13;11.80;;;7.67;;
18693;SDS011;9477;51.414;10.362;2022-11-20T04:37:17;12.60;;;7.50;;
18693;SDS011;9477;51.414;10.362;2022-11-20T04:39:20;10.97;;;6.80;;
18693;SDS011;9477;51.414;10.362;2022-11-20T04:41:24;13.90;;;7.93;;
18693;SDS011;9477;51.414;10.362;2022-11-20T04:43:28;12.93;;;7.47;;
18693;SDS011;9477;51.414;10.362;2022-11-20T04:45:31;13.13;;;7.53;;
18693;SDS011;9477;51.414;10.362;2022-11-20T04:47:34;12.90;;;7.90;;
18693;SDS011;9477;51.414;10.362;2022-11-20T04:49:37;12.50;;;7.63;;
18693;SDS011;9477;51.414;10.362;2022-11-20T04:51:39;12.87;;;7.97;;
18693;SDS011;9477;51.414;10.362;2022-11-20T04:53:44;14.50;;;8.03;;
18693;SDS011;9477;51.414;10.362;2022-11-20T04:55:47;12.67;;;8.13;;
18693;SDS011;9477;51.414;10.362;2022-11-20T04:57:50;13.63;;;8.13;;
18693;SDS011;9477;51.414;10.362;2022-11-20T04:59:53;12.00;;;7.57;;
18693;SDS011;9477;51.414;10.362;2022-11-20T05:01:56;14.30;;;7.83;;
18693;SDS011;9477;51.414;10.362;2022-11-20T05:03:59;14.17;;;8.03;;
18693;SDS011;9477;51.414;10.362;2022-11-20T05:06:02;12.80;;;7.77;;
18693;SDS011;9477;51.414;10.362;2022-11-20T05:08:06;13.40;;;7.37;;
18693;SDS011;9477;51.414;10.362;2022-11-20T05:10:10;12.00;;;7.27;;
18693;SDS011;9477;51.414;10.362;2022-11-20T05:12:13;14.67;;;8.03;;
18693;SDS011;9477;51.414;10.362;2022-11-20T05:14:16;12.17;;;7.23;;
18693;SDS011;9477;51.414;10.362;2022-11-20T05:16:21;13.97;;;7.70;;
18693;SDS011;9477;51.414;10.362;2022-11-20T05:18:25;12.23;;;7.60;;
18693;SDS011;9477;51.414;10.362;2022-11-20T05:20:28;11.80;;;7.50;;
18693;SDS011;9477;51.414;10.362;2022-11-20T05:22:31;14.33;;;8.00;;
18693;SDS011;9477;51.414;10.362;2022-11-20T05:24:34;12.73;;;7.57;;
18693;SDS011;9477;51.414;10.362;2022-11-20T05:26:38;15.17;;;8.13;;
18693;SDS011;9477;51.414;10.362;2022-11-20T05:28:41;12.37;;;7.20;;
18693;SDS011;9477;51.414;10.362;2022-11-20T05:30:44;13.53;;;7.63;;
18693;SDS011;9477;51.414;10.362;2022-11-20T05:32:47;14.50;;;7.50;;
18693;SDS011;9477;51.414;10.362;2022-11-20T05:34:49;12.13;;;7.20;;
18693;SDS011;9477;51.414;10.362;2022-11-20T05:36:52;12.77;;;7.47;;
18693;SDS011;9477;51.414;10.362;2022-11-20T05:38:55;10.47;;;6.63;;
18693;SDS011;9477;51.414;10.362;2022-11-20T05:41:05;12.83;;;7.70;;
18693;SDS011;9477;51.414;10.362;2022-11-20T05:43:10;12.70;;;7.50;;
18693;SDS011;9477;51.414;10.362;2022-11-20T05:45:13;12.20;;;7.40;;
18693;SDS011;9477;51.414;10.362;2022-11-20T05:47:15;13.90;;;7.73;;
18693;SDS011;9477;51.414;10.362;2022-11-20T05:49:18;11.97;;;7.90;;
18693;SDS011;9477;51.414;10.362;2022-11-20T05:51:22;11.60;;;7.13;;
18693;SDS011;9477;51.414;10.362;2022-11-20T05:53:25;11.80;;;6.67;;
18693;SDS011;9477;51.414;10.362;2022-11-20T05:55:28;11.70;;;7.63;;
18693;SDS011;9477;51.414;10.362;2022-11-20T05:57:31;14.73;;;7.67;;
18693;SDS011;9477;51.414;10.362;2022-11-20T05:59:35;15.57;;;8.33;;
18693;SDS011;9477;51.414;10.362;2022-11-20T06:01:38;14.70;;;7.47;;
18693;SDS011;9477;51.414;10.362;2022-11-20T06:03:41;13.43;;;7.77;;
18693;SDS011;9477;51.414;10.362;2022-11-20T06:05:47;14.33;;;7.87;;
18693;SDS011;9477;51.414;10.362;2022-11-20T06:07:49;14.77;;;8.10;;
18693;SDS011;9477;51.414;10.362;2022-11-20T06:09:52;14.37;;;8.10;;
18693;SDS011;9477;51.414;10.362;2022-11-20T06:11:55;13.67;;;8.00;;
18693;SDS011;9477;51.414;10.362;2022-11-20T06:13:58;12.87;;;7.53;;
18693;SDS011;9477;51.414;10.362;2022-11-20T06:16:03;13.73;;;7.70;;
18693;SDS011;9477;51.414;10.362;2022-11-20T06:18:06;12.63;;;7.37;;
18693;SDS011;9477;51.414;10.362;2022-11-20T06:20:09;11.83;;;7.63;;
18693;SDS011;9477;51.414;10.362;2022-11-20T06:22:12;13.93;;;7.90;;
18693;SDS011;9477;51.414;10.362;2022-11-20T06:24:15;13.73;;;8.10;;
18693;SDS011;9477;51.414;10.362;2022-11-20T06:26:19;17.00;;;10.30;;
18693;SDS011;9477;51.414;10.362;2022-11-20T06:28:23;15.57;;;9.13;;
18693;SDS011;9477;51.414;10.362;2022-11-20T06:30:26;16.00;;;9.10;;
18693;SDS011;9477;51.414;10.362;2022-11-20T06:32:30;14.87;;;8.73;;
18693;SDS011;9477;51.414;10.362;2022-11-20T06:34:33;17.43;;;10.57;;
18693;SDS011;9477;51.414;10.362;2022-11-20T06:36:35;17.03;;;9.07;;
18693;SDS011;9477;51.414;10.362;2022-11-20T06:38:38;14.83;;;8.63;;
18693;SDS011;9477;51.414;10.362;2022-11-20T06:40:42;17.47;;;9.17;;
18693;SDS011;9477;51.414;10.362;2022-11-20T06:42:45;16.27;;;9.63;;
18693;SDS011;9477;51.414;10.362;2022-11-20T06:44:48;18.20;;;9.93;;
18693;SDS011;9477;51.414;10.362;2022-11-20T06:46:51;16.37;;;9.70;;
18693;SDS011;9477;51.414;10.362;2022-11-20T06:48:55;21.33;;;11.07;;
18693;SDS011;9477;51.414;10.362;2022-11-20T06:50:59;37.37;;;16.97;;
18693;SDS011;9477;51.414;10.362;2022-11-20T06:53:02;54.20;;;26.07;;
18693;SDS011;9477;51.414;10.362;2022-11-20T06:55:05;89.60;;;39.57;;
18693;SDS011;9477;51.414;10.362;2022-11-20T06:57:09;45.17;;;22.20;;
18693;SDS011;9477;51.414;10.362;2022-11-20T06:59:12;42.00;;;20.10;;
18693;SDS011;9477;51.414;10.362;2022-11-20T07:01:15;31.57;;;16.10;;
18693;SDS011;9477;51.414;10.362;2022-11-20T07:03:18;33.93;;;17.73;;
18693;SDS011;9477;51.414;10.362;2022-11-20T07:05:22;26.17;;;14.07;;
18693;SDS011;9477;51.414;10.362;2022-11-20T07:07:25;23.63;;;12.90;;
18693;SDS011;9477;51.414;10.362;2022-11-20T07:09:28;22.43;;;12.07;;
18693;SDS011;9477;51.414;10.362;2022-11-20T07:11:30;61.57;;;31.50;;
18693;SDS011;9477;51.414;10.362;2022-11-20T07:13:33;31.93;;;17.60;;
18693;SDS011;9477;51.414;10.362;2022-11-20T07:15:36;24.20;;;12.70;;
18693;SDS011;9477;51.414;10.362;2022-11-20T07:17:39;25.37;;;12.20;;
18693;SDS011;9477;51.414;10.362;2022-11-20T07:19:42;22.63;;;11.47;;
18693;SDS011;9477;51.414;10.362;2022-11-20T07:21:46;19.00;;;11.00;;
18693;SDS011;9477;51.414;10.362;2022-11-20T07:23:49;20.77;;;11.07;;
18693;SDS011;9477;51.414;10.362;2022-11-20T07:25:52;21.30;;;12.03;;
18693;SDS011;9477;51.414;10.362;2022-11-20T07:27:56;22.70;;;11.93;;
18693;SDS011;9477;51.414;10.362;2022-11-20T07:29:59;21.57;;;13.17;;
18693;SDS011;9477;51.414;10.362;2022-11-20T07:32:02;21.87;;;12.97;;
18693;SDS011;9477;51.414;10.362;2022-11-20T07:34:06;23.47;;;14.07;;
18693;SDS011;9477;51.414;10.362;2022-11-20T07:36:09;23.83;;;13.90;;
18693;SDS011;9477;51.414;10.362;2022-11-20T07:38:13;23.07;;;13.30;;
18693;SDS011;9477;51.414;10.362;2022-11-20T07:40:16;22.93;;;12.83;;
18693;SDS011;9477;51.414;10.362;2022-11-20T07:42:20;23.20;;;13.00;;
18693;SDS011;9477;51.414;10.362;2022-11-20T07:44:23;25.57;;;14.60;;
18693;SDS011;9477;51.414;10.362;2022-11-20T07:46:26;26.43;;;14.50;;
18693;SDS011;9477;51.414;10.362;2022-11-20T07:48:29;23.53;;;13.57;;
18693;SDS011;9477;51.414;10.362;2022-11-20T07:50:32;22.93;;;13.00;;
18693;SDS011;9477;51.414;10.362;2022-11-20T07:52:34;23.57;;;13.27;;
18693;SDS011;9477;51.414;10.362;2022-11-20T07:54:39;21.77;;;12.93;;
18693;SDS011;9477;51.414;10.362;2022-11-20T07:56:41;22.63;;;13.50;;
18693;SDS011;9477;51.414;10.362;2022-11-20T07:58:44;25.87;;;14.73;;
18693;SDS011;9477;51.414;10.362;2022-11-20T08:00:47;28.50;;;16.13;;
18693;SDS011;9477;51.414;10.362;2022-11-20T08:02:50;34.43;;;17.30;;
18693;SDS011;9477;51.414;10.362;2022-11-20T08:04:53;34.43;;;18.63;;
18693;SDS011;9477;51.414;10.362;2022-11-20T08:06:56;26.67;;;15.30;;
18693;SDS011;9477;51.414;10.362;2022-11-20T08:08:59;31.63;;;15.67;;
18693;SDS011;9477;51.414;10.362;2022-11-20T08:11:03;30.80;;;9.83;;
18693;SDS011;9477;51.414;10.362;2022-11-20T08:13:24;35.90;;;13.00;;
18693;SDS011;9477;51.414;10.362;2022-11-20T08:15:47;22.37;;;9.53;;
18693;SDS011;9477;51.414;10.362;2022-11-20T08:17:51;16.73;;;8.70;;
18693;SDS011;9477;51.414;10.362;2022-11-20T08:20:20;19.40;;;8.90;;
18693;SDS011;9477;51.414;10.362;2022-11-20T08:22:23;15.23;;;8.27;;
18693;SDS011;9477;51.414;10.362;2022-11-20T08:24:26;18.53;;;8.00;;
18693;SDS011;9477;51.414;10.362;2022-11-20T08:26:31;16.97;;;8.10;;
18693;SDS011;9477;51.414;10.362;2022-11-20T08:28:33;14.93;;;7.93;;
18693;SDS011;9477;51.414;10.362;2022-11-20T08:30:36;16.00;;;9.23;;
18693;SDS011;9477;51.414;10.362;2022-11-20T08:32:39;19.13;;;9.53;;
18693;SDS011;9477;51.414;10.362;2022-11-20T08:34:42;15.17;;;8.60;;
18693;SDS011;9477;51.414;10.362;2022-11-20T08:36:45;14.13;;;9.03;;
18693;SDS011;9477;51.414;10.362;2022-11-20T08:38:48;13.73;;;8.17;;
18693;SDS011;9477;51.414;10.362;2022-11-20T08:40:51;15.10;;;8.60;;
18693;SDS011;9477;51.414;10.362;2022-11-20T08:43:13;16.17;;;9.23;;
18693;SDS011;9477;51.414;10.362;2022-11-20T08:45:16;15.47;;;9.13;;
18693;SDS011;9477;51.414;10.362;2022-11-20T08:47:20;13.03;;;8.27;;
18693;SDS011;9477;51.414;10.362;2022-11-20T08:49:23;14.37;;;8.60;;
18693;SDS011;9477;51.414;10.362;2022-11-20T08:51:26;15.33;;;9.13;;
18693;SDS011;9477;51.414;10.362;2022-11-20T08:53:30;23.23;;;9.03;;
18693;SDS011;9477;51.414;10.362;2022-11-20T08:55:32;24.50;;;9.53;;
18693;SDS011;9477;51.414;10.362;2022-11-20T08:57:37;11.90;;;7.33;;
18693;SDS011;9477;51.414;10.362;2022-11-20T08:59:42;86.63;;;42.70;;
18693;SDS011;9477;51.414;10.362;2022-11-20T09:02:05;39.67;;;21.97;;
18693;SDS011;9477;51.414;10.362;2022-11-20T09:04:08;44.23;;;23.43;;
18693;SDS011;9477;51.414;10.362;2022-11-20T09:06:10;38.17;;;18.90;;
18693;SDS011;9477;51.414;10.362;2022-11-20T09:08:14;20.50;;;11.03;;
18693;SDS011;9477;51.414;10.362;2022-11-20T09:10:16;26.33;;;13.87;;
18693;SDS011;9477;51.414;10.362;2022-11-20T09:12:25;19.57;;;11.97;;
18693;SDS011;9477;51.414;10.362;2022-11-20T09:14:27;20.50;;;11.53;;
18693;SDS011;9477;51.414;10.362;2022-11-20T09:16:32;16.73;;;10.40;;
18693;SDS011;9477;51.414;10.362;2022-11-20T09:18:35;16.10;;;10.13;;
18693;SDS011;9477;51.414;10.362;2022-11-20T09:20:38;14.77;;;9.13;;
18693;SDS011;9477;51.414;10.362;2022-11-20T09:22:41;18.17;;;10.13;;
18693;SDS011;9477;51.414;10.362;2022-11-20T09:24:44;17.03;;;10.10;;
18693;SDS011;9477;51.414;10.362;2022-11-20T09:26:47;14.77;;;9.50;;
18693;SDS011;9477;51.414;10.362;2022-11-20T09:28:50;15.37;;;10.00;;
18693;SDS011;9477;51.414;10.362;2022-11-20T09:30:58;17.63;;;10.43;;
18693;SDS011;9477;51.414;10.362;2022-11-20T09:33:02;16.40;;;10.23;;
18693;SDS011;9477;51.414;10.362;2022-11-20T09:35:07;16.07;;;9.60;;
18693;SDS011;9477;51.414;10.362;2022-11-20T09:37:10;14.83;;;9.33;;
18693;SDS011;9477;51.414;10.362;2022-11-20T09:39:13;20.30;;;12.33;;
18693;SDS011;9477;51.414;10.362;2022-11-20T09:41:23;12.30;;;7.93;;
18693;SDS011;9477;51.414;10.362;2022-11-20T09:43:41;15.33;;;9.17;;
18693;SDS011;9477;51.414;10.362;2022-11-20T09:46:02;16.93;;;9.30;;
18693;SDS011;9477;51.414;10.362;2022-11-20T09:48:16;13.97;;;8.73;;
18693;SDS011;9477;51.414;10.362;2022-11-20T09:50:29;12.97;;;7.93;;
18693;SDS011;9477;51.414;10.362;2022-11-20T09:52:37;11.73;;;7.67;;
18693;SDS011;9477;51.414;10.362;2022-11-20T09:54:51;14.53;;;8.43;;
18693;SDS011;9477;51.414;10.362;2022-11-20T09:56:58;13.17;;;8.17;;
18693;SDS011;9477;51.414;10.362;2022-11-20T09:59:03;11.03;;;7.57;;
18693;SDS011;9477;51.414;10.362;2022-11-20T10:01:10;10.63;;;6.80;;
18693;SDS011;9477;51.414;10.362;2022-11-20T10:03:18;13.07;;;8.37;;
18693;SDS011;9477;51.414;10.362;2022-11-20T10:05:27;12.17;;;8.07;;
18693;SDS011;9477;51.414;10.362;2022-11-20T10:07:36;11.70;;;7.83;;
18693;SDS011;9477;51.414;10.362;2022-11-20T10:09:47;11.67;;;7.83;;
18693;SDS011;9477;51.414;10.362;2022-11-20T10:11:56;11.87;;;7.87;;
18693;SDS011;9477;51.414;10.362;2022-11-20T10:14:10;10.47;;;7.07;;
18693;SDS011;9477;51.414;10.362;2022-11-20T10:16:21;11.57;;;7.13;;
18693;SDS011;9477;51.414;10.362;2022-11-20T10:18:44;13.80;;;8.30;;
18693;SDS011;9477;51.414;10.362;2022-11-20T10:20:58;13.97;;;7.73;;
18693;SDS011;9477;51.414;10.362;2022-11-20T10:23:33;13.03;;;8.03;;
18693;SDS011;9477;51.414;10.362;2022-11-20T10:25:50;13.60;;;8.57;;
18693;SDS011;9477;51.414;10.362;2022-11-20T10:28:05;13.20;;;8.27;;
18693;SDS011;9477;51.414;10.362;2022-11-20T10:30:18;14.03;;;8.97;;
18693;SDS011;9477;51.414;10.362;2022-11-20T10:32:24;15.40;;;8.80;;
18693;SDS011;9477;51.414;10.362;2022-11-20T10:34:35;14.37;;;8.70;;
18693;SDS011;9477;51.414;10.362;2022-11-20T10:36:48;13.63;;;8.57;;
18693;SDS011;9477;51.414;10.362;2022-11-20T10:38:58;15.83;;;10.30;;
18693;SDS011;9477;51.414;10.362;2022-11-20T10:41:06;13.40;;;8.83;;
18693;SDS011;9477;51.414;10.362;2022-11-20T10:43:34;15.07;;;8.07;;
18693;SDS011;9477;51.414;10.362;2022-11-20T10:45:40;14.73;;;8.87;;
18693;SDS011;9477;51.414;10.362;2022-11-20T10:47:49;13.90;;;8.80;;
18693;SDS011;9477;51.414;10.362;2022-11-20T10:49:54;15.83;;;9.17;;
18693;SDS011;9477;51.414;10.362;2022-11-20T10:52:02;15.43;;;10.17;;
18693;SDS011;9477;51.414;10.362;2022-11-20T10:54:12;13.27;;;8.70;;
18693;SDS011;9477;51.414;10.362;2022-11-20T10:56:24;16.03;;;10.00;;
18693;SDS011;9477;51.414;10.362;2022-11-20T10:58:34;16.63;;;9.80;;
18693;SDS011;9477;51.414;10.362;2022-11-20T11:00:46;16.80;;;8.50;;
18693;SDS011;9477;51.414;10.362;2022-11-20T11:02:49;13.77;;;8.90;;
18693;SDS011;9477;51.414;10.362;2022-11-20T11:04:55;13.80;;;9.27;;
18693;SDS011;9477;51.414;10.362;2022-11-20T11:07:01;14.47;;;9.63;;
18693;SDS011;9477;51.414;10.362;2022-11-20T11:09:10;13.47;;;9.43;;
18693;SDS011;9477;51.414;10.362;2022-11-20T11:11:20;13.97;;;9.17;;
18693;SDS011;9477;51.414;10.362;2022-11-20T11:13:26;14.10;;;9.00;;
18693;SDS011;9477;51.414;10.362;2022-11-20T11:15:35;15.10;;;9.10;;
18693;SDS011;9477;51.414;10.362;2022-11-20T11:17:46;12.73;;;8.67;;
18693;SDS011;9477;51.414;10.362;2022-11-20T11:20:04;15.43;;;9.30;;
18693;SDS011;9477;51.414;10.362;2022-11-20T11:22:16;14.20;;;9.37;;
18693;SDS011;9477;51.414;10.362;2022-11-20T11:24:21;13.60;;;8.83;;
18693;SDS011;9477;51.414;10.362;2022-11-20T11:26:50;16.07;;;9.23;;
18693;SDS011;9477;51.414;10.362;2022-11-20T11:28:55;13.20;;;9.20;;
18693;SDS011;9477;51.414;10.362;2022-11-20T11:30:59;17.00;;;10.47;;
18693;SDS011;9477;51.414;10.362;2022-11-20T11:33:02;13.07;;;8.87;;
18693;SDS011;9477;51.414;10.362;2022-11-20T11:35:19;13.40;;;8.30;;
18693;SDS011;9477;51.414;10.362;2022-11-20T11:37:24;12.83;;;8.77;;
18693;SDS011;9477;51.414;10.362;2022-11-20T11:39:31;16.77;;;10.33;;
18693;SDS011;9477;51.414;10.362;2022-11-20T11:41:35;16.77;;;9.67;;
18693;SDS011;9477;51.414;10.362;2022-11-20T11:43:38;14.77;;;9.80;;
18693;SDS011;9477;51.414;10.362;2022-11-20T11:46:13;15.43;;;9.60;;
18693;SDS011;9477;51.414;10.362;2022-11-20T11:48:31;14.00;;;9.40;;
18693;SDS011;9477;51.414;10.362;2022-11-20T11:50:35;14.33;;;9.60;;
18693;SDS011;9477;51.414;10.362;2022-11-20T11:52:41;14.13;;;8.53;;
18693;SDS011;9477;51.414;10.362;2022-11-20T11:54:48;14.43;;;9.13;;
18693;SDS011;9477;51.414;10.362;2022-11-20T11:56:55;14.67;;;8.97;;
18693;SDS011;9477;51.414;10.362;2022-11-20T11:59:00;12.73;;;8.57;;
18693;SDS011;9477;51.414;10.362;2022-11-20T12:01:12;13.07;;;8.20;;
18693;SDS011;9477;51.414;10.362;2022-11-20T12:03:24;13.47;;;8.57;;
18693;SDS011;9477;51.414;10.362;2022-11-20T12:05:32;13.17;;;8.67;;
18693;SDS011;9477;51.414;10.362;2022-11-20T12:07:45;11.93;;;7.93;;
18693;SDS011;9477;51.414;10.362;2022-11-20T12:09:52;13.53;;;8.40;;
18693;SDS011;9477;51.414;10.362;2022-11-20T12:11:58;13.03;;;8.57;;
18693;SDS011;9477;51.414;10.362;2022-11-20T12:14:09;16.83;;;10.73;;
18693;SDS011;9477;51.414;10.362;2022-11-20T12:16:17;13.20;;;9.17;;
18693;SDS011;9477;51.414;10.362;2022-11-20T12:18:22;11.57;;;8.47;;
18693;SDS011;9477;51.414;10.362;2022-11-20T12:20:26;12.00;;;8.03;;
18693;SDS011;9477;51.414;10.362;2022-11-20T12:22:34;13.90;;;9.00;;
18693;SDS011;9477;51.414;10.362;2022-11-20T12:24:45;12.07;;;7.57;;
18693;SDS011;9477;51.414;10.362;2022-11-20T12:27:01;13.97;;;8.47;;